createdAt,value
2019-05-26T00:01:39.541Z,16.87
2019-05-26T00:04:06.658Z,15.00
2019-05-26T00:06:33.733Z,14.97
2019-05-26T00:09:00.818Z,16.33
2019-05-26T00:11:27.900Z,12.40
2019-05-26T00:13:54.991Z,13.70
2019-05-26T00:16:22.057Z,15.80
2019-05-26T00:18:49.147Z,13.23
2019-05-26T00:21:16.243Z,12.33
2019-05-26T00:23:43.351Z,13.80
2019-05-26T00:26:10.392Z,11.30
2019-05-26T00:28:37.463Z,13.93
2019-05-26T00:31:04.602Z,17.00
2019-05-26T00:33:31.701Z,14.30
2019-05-26T00:35:58.841Z,15.73
2019-05-26T00:38:25.931Z,21.50
2019-05-26T00:40:53.027Z,17.60
2019-05-26T00:43:20.116Z,15.73
2019-05-26T00:45:47.201Z,13.80
2019-05-26T00:48:14.301Z,16.10
2019-05-26T00:50:41.463Z,17.03
2019-05-26T00:53:08.568Z,16.70
2019-05-26T00:55:35.662Z,13.80
2019-05-26T00:58:02.767Z,14.57
2019-05-26T01:00:37.181Z,26.90
2019-05-26T01:03:04.259Z,15.93
2019-05-26T01:05:31.328Z,18.27
2019-05-26T01:08:06.174Z,23.17
2019-05-26T01:10:27.424Z,19.60
2019-05-26T01:12:54.536Z,16.00
2019-05-26T01:15:21.634Z,17.17
2019-05-26T01:17:48.694Z,14.70
2019-05-26T01:20:15.889Z,14.90
2019-05-26T01:22:42.979Z,16.03
2019-05-26T01:25:15.753Z,18.53
2019-05-26T01:27:42.818Z,19.23
2019-05-26T01:30:10.095Z,15.70
2019-05-26T01:32:37.179Z,16.23
2019-05-26T01:35:04.561Z,18.10
2019-05-26T01:37:31.757Z,20.17
2019-05-26T01:39:58.844Z,17.93
2019-05-26T01:42:25.919Z,19.43
2019-05-26T01:44:52.996Z,20.13
2019-05-26T01:47:20.052Z,18.87
2019-05-26T01:49:47.138Z,15.87
2019-05-26T01:52:14.224Z,17.80
2019-05-26T01:54:41.310Z,17.50
2019-05-26T01:57:08.400Z,21.70
2019-05-26T01:59:35.466Z,17.53
2019-05-26T02:02:02.507Z,18.73
2019-05-26T02:04:29.612Z,16.17
2019-05-26T02:06:56.702Z,20.93
2019-05-26T02:09:23.798Z,16.57
2019-05-26T02:11:50.869Z,18.80
2019-05-26T02:14:17.948Z,16.93
2019-05-26T02:16:45.022Z,14.93
2019-05-26T02:19:12.114Z,19.77
2019-05-26T02:21:39.200Z,18.43
2019-05-26T02:24:06.349Z,19.90
2019-05-26T02:26:33.475Z,21.47
2019-05-26T02:29:00.549Z,19.03
2019-05-26T02:31:27.645Z,17.30
2019-05-26T02:33:54.710Z,18.23
2019-05-26T02:36:21.814Z,15.90
2019-05-26T02:39:01.014Z,15.33
2019-05-26T02:41:17.883Z,18.10
2019-05-26T02:43:44.947Z,15.53
2019-05-26T02:46:12.034Z,20.37
2019-05-26T02:48:39.164Z,18.57
2019-05-26T02:51:06.218Z,18.70
2019-05-26T02:53:33.266Z,18.33
2019-05-26T02:56:00.518Z,16.33
2019-05-26T02:58:27.556Z,16.60
2019-05-26T03:00:54.616Z,18.87
2019-05-26T03:03:21.804Z,18.67
2019-05-26T03:05:49.289Z,14.30
2019-05-26T03:08:16.545Z,15.40
2019-05-26T03:10:43.727Z,17.83
2019-05-26T03:13:14.409Z,18.13
2019-05-26T03:15:43.474Z,16.90
2019-05-26T03:18:10.519Z,18.70
2019-05-26T03:20:38.689Z,17.47
2019-05-26T03:23:06.502Z,15.90
2019-05-26T03:25:34.089Z,18.83
2019-05-26T03:28:01.219Z,16.97
2019-05-26T03:30:28.314Z,18.40
2019-05-26T03:32:55.422Z,16.93
2019-05-26T03:35:22.524Z,20.73
2019-05-26T03:37:49.593Z,25.00
2019-05-26T03:40:17.971Z,19.10
2019-05-26T03:42:45.053Z,17.17
2019-05-26T03:45:33.571Z,17.27
2019-05-26T03:48:00.668Z,19.43
2019-05-26T03:50:27.717Z,18.60
2019-05-26T03:52:54.786Z,17.17
2019-05-26T03:55:21.834Z,16.90
2019-05-26T03:57:48.941Z,22.60
2019-05-26T04:00:16.020Z,17.50
2019-05-26T04:02:43.102Z,18.80
2019-05-26T04:05:10.203Z,17.20
2019-05-26T04:07:37.253Z,16.77
2019-05-26T04:10:06.216Z,17.70
2019-05-26T04:12:33.487Z,18.17
2019-05-26T04:15:00.572Z,16.83
2019-05-26T04:17:27.659Z,16.20
2019-05-26T04:19:54.727Z,15.73
2019-05-26T04:22:21.771Z,15.80
2019-05-26T04:24:48.831Z,20.30
2019-05-26T04:27:15.946Z,14.60
2019-05-26T04:29:43.091Z,14.60
2019-05-26T04:32:10.211Z,12.57
2019-05-26T04:34:37.301Z,13.97
2019-05-26T04:37:04.432Z,20.77
2019-05-26T04:39:31.512Z,10.67
2019-05-26T04:41:58.592Z,12.73
2019-05-26T04:44:25.652Z,11.83
2019-05-26T04:46:52.740Z,13.50
2019-05-26T04:49:19.804Z,15.37
2019-05-26T04:51:46.883Z,12.27
2019-05-26T04:54:13.932Z,11.27
2019-05-26T04:56:41.059Z,12.10
2019-05-26T04:59:08.138Z,15.07
2019-05-26T05:01:35.260Z,17.00
2019-05-26T05:04:02.426Z,11.60
2019-05-26T05:06:29.512Z,12.47
2019-05-26T05:08:56.600Z,7.37
2019-05-26T05:11:23.665Z,10.70
2019-05-26T05:13:50.754Z,8.00
2019-05-26T05:16:17.822Z,6.30
2019-05-26T05:18:44.910Z,10.80
2019-05-26T05:21:11.942Z,7.10
2019-05-26T05:23:39.027Z,10.83
2019-05-26T05:26:06.118Z,9.43
2019-05-26T05:28:33.217Z,10.53
2019-05-26T05:31:00.294Z,10.87
2019-05-26T05:33:27.405Z,17.47
2019-05-26T05:35:54.471Z,11.90
2019-05-26T05:38:21.527Z,11.37
2019-05-26T05:40:59.119Z,9.93
2019-05-26T05:43:17.579Z,9.70
2019-05-26T05:45:44.649Z,11.63
2019-05-26T05:48:11.758Z,11.57
2019-05-26T05:50:39.474Z,14.30
2019-05-26T05:53:06.658Z,8.93
2019-05-26T05:55:33.717Z,9.53
2019-05-26T05:58:00.789Z,8.00
2019-05-26T06:00:27.868Z,11.73
2019-05-26T06:02:55.134Z,12.30
2019-05-26T06:05:22.225Z,11.50
2019-05-26T06:07:49.253Z,10.70
2019-05-26T06:10:16.804Z,11.70
2019-05-26T06:12:43.914Z,10.73
2019-05-26T06:15:12.007Z,10.30
2019-05-26T06:17:39.463Z,9.80
2019-05-26T06:20:06.840Z,11.10
2019-05-26T06:22:33.949Z,12.30
2019-05-26T06:25:01.005Z,9.77
2019-05-26T06:27:28.076Z,12.77
2019-05-26T06:29:58.755Z,14.40
2019-05-26T06:32:24.096Z,11.37
2019-05-26T06:34:51.168Z,13.17
2019-05-26T06:37:18.260Z,9.87
2019-05-26T06:39:45.365Z,11.23
2019-05-26T06:42:13.312Z,11.70
2019-05-26T06:44:53.105Z,17.00
2019-05-26T06:47:09.521Z,20.17
2019-05-26T06:49:36.606Z,12.67
2019-05-26T06:52:03.749Z,9.27
2019-05-26T06:54:30.808Z,25.07
2019-05-26T06:56:57.951Z,10.07
2019-05-26T06:59:25.014Z,14.67
2019-05-26T07:01:52.091Z,9.20
2019-05-26T07:04:20.100Z,8.80
2019-05-26T07:06:47.207Z,10.30
2019-05-26T07:09:14.299Z,8.50
2019-05-26T07:11:55.653Z,10.80
2019-05-26T07:14:10.349Z,9.37
2019-05-26T07:16:38.851Z,11.43
2019-05-26T07:19:06.095Z,8.07
2019-05-26T07:21:33.222Z,10.50
2019-05-26T07:24:00.278Z,7.93
2019-05-26T07:26:27.351Z,7.80
2019-05-26T07:28:54.412Z,8.50
2019-05-26T07:31:21.510Z,9.30
2019-05-26T07:33:48.590Z,9.30
2019-05-26T07:36:15.686Z,9.10
2019-05-26T07:38:42.772Z,7.40
2019-05-26T07:41:09.882Z,7.80
2019-05-26T07:43:36.952Z,6.17
2019-05-26T07:46:04.036Z,6.20
2019-05-26T07:48:35.373Z,6.70
2019-05-26T07:51:00.128Z,8.63
2019-05-26T07:53:27.214Z,8.97
2019-05-26T07:55:54.327Z,5.60
2019-05-26T07:58:21.417Z,6.50
2019-05-26T08:00:48.508Z,9.70
2019-05-26T08:03:15.603Z,6.80
2019-05-26T08:05:42.686Z,7.03
2019-05-26T08:08:13.035Z,6.83
2019-05-26T08:10:38.814Z,9.73
2019-05-26T08:13:05.869Z,20.20
2019-05-26T08:15:32.934Z,7.40
2019-05-26T08:18:00.058Z,6.30
2019-05-26T08:20:27.131Z,5.20
2019-05-26T08:22:54.241Z,6.23
2019-05-26T08:25:21.349Z,4.43
2019-05-26T08:27:48.448Z,8.10
2019-05-26T08:30:15.537Z,6.80
2019-05-26T08:32:42.627Z,5.47
2019-05-26T08:35:09.929Z,6.20
2019-05-26T08:37:36.999Z,6.13
2019-05-26T08:40:19.147Z,6.03
2019-05-26T08:42:47.218Z,5.67
2019-05-26T08:45:14.377Z,5.93
2019-05-26T08:47:41.580Z,6.00
2019-05-26T08:50:08.675Z,5.63
2019-05-26T08:52:35.756Z,14.80
2019-05-26T08:55:02.941Z,9.80
2019-05-26T08:57:30.052Z,7.13
2019-05-26T08:59:57.101Z,5.93
2019-05-26T09:02:24.195Z,6.57
2019-05-26T09:04:51.322Z,5.83
2019-05-26T09:07:18.452Z,6.70
2019-05-26T09:09:45.548Z,8.53
2019-05-26T09:12:12.731Z,6.67
2019-05-26T09:14:39.839Z,3.97
2019-05-26T09:17:06.929Z,5.30
2019-05-26T09:19:33.994Z,4.20
2019-05-26T09:22:01.079Z,5.80
2019-05-26T09:24:28.128Z,3.63
2019-05-26T09:26:55.250Z,4.40
2019-05-26T09:29:22.335Z,4.43
2019-05-26T09:31:49.433Z,4.10
2019-05-26T09:34:16.501Z,4.67
2019-05-26T09:36:43.576Z,5.73
2019-05-26T09:39:10.658Z,9.70
2019-05-26T09:41:37.841Z,3.90
2019-05-26T09:44:05.007Z,5.00
2019-05-26T09:46:32.142Z,3.77
2019-05-26T09:49:01.024Z,4.97
2019-05-26T09:51:28.200Z,4.47
2019-05-26T09:54:01.817Z,3.43
2019-05-26T09:56:24.236Z,6.97
2019-05-26T09:58:51.356Z,4.30
2019-05-26T10:01:18.459Z,4.70
2019-05-26T10:03:45.626Z,4.67
2019-05-26T10:06:12.750Z,3.37
2019-05-26T10:08:39.902Z,5.73
2019-05-26T10:11:06.995Z,4.63
2019-05-26T10:13:34.120Z,3.23
2019-05-26T10:16:01.218Z,3.60
2019-05-26T10:18:28.306Z,4.80
2019-05-26T10:20:55.435Z,3.67
2019-05-26T10:23:22.504Z,4.03
2019-05-26T10:25:49.614Z,2.83
2019-05-26T10:28:16.654Z,4.10
2019-05-26T10:30:43.765Z,4.13
2019-05-26T10:33:10.838Z,3.40
2019-05-26T10:35:37.917Z,3.90
2019-05-26T10:38:05.020Z,7.37
2019-05-26T10:40:32.118Z,3.13
2019-05-26T10:42:59.200Z,5.50
2019-05-26T10:45:26.267Z,4.47
2019-05-26T10:47:53.335Z,4.77
2019-05-26T10:50:20.543Z,3.73
2019-05-26T10:52:47.651Z,4.90
2019-05-26T10:55:17.027Z,3.63
2019-05-26T10:57:44.147Z,3.63
2019-05-26T11:00:12.923Z,7.00
2019-05-26T11:02:40.017Z,5.60
2019-05-26T11:05:08.236Z,3.90
2019-05-26T11:07:35.326Z,3.73
2019-05-26T11:10:02.485Z,4.33
2019-05-26T11:12:29.587Z,2.83
2019-05-26T11:14:56.707Z,6.30
2019-05-26T11:17:23.787Z,9.83
2019-05-26T11:19:51.005Z,5.80
2019-05-26T11:22:18.124Z,4.17
2019-05-26T11:24:45.217Z,6.03
2019-05-26T11:27:13.587Z,4.87
2019-05-26T11:29:41.333Z,4.63
2019-05-26T11:32:08.420Z,3.10
2019-05-26T11:34:35.475Z,3.70
2019-05-26T11:37:02.576Z,3.87
2019-05-26T11:39:29.730Z,5.17
2019-05-26T11:42:10.551Z,3.17
2019-05-26T11:44:25.769Z,4.10
2019-05-26T11:46:52.866Z,5.10
2019-05-26T11:49:19.966Z,4.47
2019-05-26T11:51:47.093Z,2.90
2019-05-26T11:54:14.161Z,3.80
2019-05-26T11:56:41.266Z,2.70
2019-05-26T11:59:08.362Z,3.27
2019-05-26T12:01:35.458Z,5.53
2019-05-26T12:04:02.525Z,3.43
2019-05-26T12:06:29.630Z,3.07
2019-05-26T12:08:56.708Z,3.47
2019-05-26T12:11:23.806Z,5.40
2019-05-26T12:13:50.905Z,7.27
2019-05-26T12:16:18.036Z,3.10
2019-05-26T12:18:45.152Z,4.00
2019-05-26T12:21:12.251Z,3.07
2019-05-26T12:23:39.329Z,4.73
2019-05-26T12:26:06.458Z,3.10
2019-05-26T12:28:33.582Z,3.80
2019-05-26T12:31:00.696Z,4.23
2019-05-26T12:33:27.769Z,5.30
2019-05-26T12:35:54.907Z,3.80
2019-05-26T12:38:22.041Z,2.97
2019-05-26T12:40:49.102Z,3.50
2019-05-26T12:43:16.245Z,3.87
2019-05-26T12:45:43.294Z,3.30
2019-05-26T12:48:10.377Z,5.80
2019-05-26T12:50:37.552Z,2.83
2019-05-26T12:53:06.465Z,2.77
2019-05-26T12:55:33.563Z,3.17
2019-05-26T12:58:00.665Z,5.03
2019-05-26T13:00:27.752Z,2.60
2019-05-26T13:02:55.187Z,4.90
2019-05-26T13:05:22.263Z,5.40
2019-05-26T13:07:49.371Z,4.00
2019-05-26T13:10:17.319Z,2.80
2019-05-26T13:12:44.488Z,3.20
2019-05-26T13:15:13.278Z,3.13
2019-05-26T13:17:40.345Z,3.50
2019-05-26T13:20:08.172Z,3.70
2019-05-26T13:22:35.357Z,4.80
2019-05-26T13:25:02.702Z,7.10
2019-05-26T13:27:29.825Z,3.17
2019-05-26T13:29:56.920Z,2.50
2019-05-26T13:32:24.022Z,2.73
2019-05-26T13:34:51.110Z,2.60
2019-05-26T13:37:18.230Z,2.33
2019-05-26T13:39:45.323Z,4.50
2019-05-26T13:42:12.425Z,3.37
2019-05-26T13:44:39.496Z,2.47
2019-05-26T13:47:06.616Z,3.63
2019-05-26T13:49:33.742Z,2.60
2019-05-26T13:52:00.795Z,2.03
2019-05-26T13:54:27.889Z,4.57
2019-05-26T13:56:55.026Z,2.93
2019-05-26T13:59:22.118Z,2.63
2019-05-26T14:01:49.210Z,3.07
2019-05-26T14:04:16.311Z,2.70
2019-05-26T14:06:43.374Z,5.53
2019-05-26T14:09:10.565Z,2.50
2019-05-26T14:11:37.635Z,2.70
2019-05-26T14:14:04.832Z,5.97
2019-05-26T14:16:33.411Z,3.37
2019-05-26T14:19:01.604Z,3.00
2019-05-26T14:21:28.730Z,3.07
2019-05-26T14:23:55.814Z,3.10
2019-05-26T14:26:22.935Z,2.30
2019-05-26T14:28:50.017Z,3.60
2019-05-26T14:31:17.144Z,5.77
2019-05-26T14:33:44.256Z,2.40
2019-05-26T14:36:11.371Z,4.10
2019-05-26T14:38:43.344Z,2.30
2019-05-26T14:41:07.482Z,2.97
2019-05-26T14:43:34.569Z,3.33
2019-05-26T14:46:01.684Z,2.80
2019-05-26T14:48:28.790Z,2.50
2019-05-26T14:50:55.867Z,3.00
2019-05-26T14:53:22.952Z,2.87
2019-05-26T14:58:24.861Z,2.60
2019-05-26T15:00:51.962Z,3.37
2019-05-26T15:03:19.085Z,3.93
2019-05-26T15:05:46.164Z,2.20
2019-05-26T15:08:13.297Z,2.33
2019-05-26T15:10:40.352Z,5.30
2019-05-26T15:13:07.472Z,3.60
2019-05-26T15:15:35.198Z,3.03
2019-05-26T15:18:02.342Z,3.77
2019-05-26T15:20:29.421Z,2.63
2019-05-26T15:22:56.555Z,2.07
2019-05-26T15:25:23.611Z,3.97
2019-05-26T15:27:50.742Z,3.13
2019-05-26T15:32:57.340Z,3.03
2019-05-26T15:35:35.950Z,3.10
2019-05-26T15:38:03.064Z,2.63
2019-05-26T15:40:30.145Z,2.90
2019-05-26T15:42:57.236Z,2.30
2019-05-26T15:45:24.395Z,2.33
2019-05-26T15:47:51.483Z,2.63
2019-05-26T15:50:18.677Z,4.40
2019-05-26T15:52:45.825Z,3.40
2019-05-26T15:55:17.799Z,3.03
2019-05-26T15:57:44.883Z,2.47
2019-05-26T16:00:11.987Z,3.00
2019-05-26T16:02:39.045Z,2.20
2019-05-26T16:05:06.473Z,2.77
2019-05-26T16:07:33.590Z,2.20
2019-05-26T16:10:00.652Z,2.53
2019-05-26T16:12:27.745Z,2.27
2019-05-26T16:14:54.837Z,2.60
2019-05-26T16:17:21.966Z,4.90
2019-05-26T16:19:49.029Z,4.00
2019-05-26T16:22:16.141Z,3.43
2019-05-26T16:24:43.203Z,2.83
2019-05-26T16:27:19.249Z,1.93
2019-05-26T16:29:39.292Z,8.23
2019-05-26T16:32:06.381Z,1.90
2019-05-26T16:34:33.480Z,2.53
2019-05-26T16:37:00.587Z,2.50
2019-05-26T16:39:36.468Z,2.20
2019-05-26T16:42:03.132Z,2.40
2019-05-26T16:44:30.205Z,5.80
2019-05-26T16:46:57.279Z,2.20
2019-05-26T16:49:24.391Z,2.23
2019-05-26T16:51:51.476Z,2.83
2019-05-26T16:54:18.581Z,2.30
2019-05-26T16:56:45.666Z,1.87
2019-05-26T16:59:12.766Z,4.30
2019-05-26T17:01:39.846Z,3.00
2019-05-26T17:04:06.912Z,2.73
2019-05-26T17:06:33.979Z,3.93
2019-05-26T17:09:01.050Z,1.60
2019-05-26T17:11:28.153Z,2.07
2019-05-26T17:13:55.244Z,2.17
2019-05-26T17:16:22.363Z,3.93
2019-05-26T17:18:49.525Z,2.07
2019-05-26T17:21:16.592Z,2.70
2019-05-26T17:23:43.707Z,2.43
2019-05-26T17:26:10.799Z,1.87
2019-05-26T17:28:37.867Z,3.53
2019-05-26T17:31:05.014Z,2.00
2019-05-26T17:33:32.103Z,5.50
2019-05-26T17:35:59.224Z,4.30
2019-05-26T17:38:26.311Z,3.50
2019-05-26T17:40:53.405Z,2.33
2019-05-26T17:43:20.481Z,1.90
2019-05-26T17:45:47.605Z,2.07
2019-05-26T17:48:14.703Z,4.07
2019-05-26T17:50:41.806Z,3.07
2019-05-26T17:53:08.918Z,2.20
2019-05-26T17:55:36.007Z,5.97
2019-05-26T17:58:03.139Z,2.27
2019-05-26T18:00:30.268Z,2.20
2019-05-26T18:02:57.360Z,3.23
2019-05-26T18:05:24.436Z,5.67
2019-05-26T18:07:51.526Z,2.47
2019-05-26T18:10:19.456Z,2.73
2019-05-26T18:12:46.560Z,10.30
2019-05-26T18:15:13.746Z,2.33
2019-05-26T18:17:46.871Z,2.87
2019-05-26T18:20:10.005Z,3.47
2019-05-26T18:22:37.117Z,2.60
2019-05-26T18:25:04.472Z,7.07
2019-05-26T18:27:31.582Z,2.80
2019-05-26T18:29:58.665Z,4.10
2019-05-26T18:32:25.767Z,4.13
2019-05-26T18:34:52.884Z,3.50
2019-05-26T18:37:19.958Z,3.43
2019-05-26T18:39:47.057Z,5.10
2019-05-26T18:42:14.021Z,4.50
2019-05-26T18:44:41.100Z,4.63
2019-05-26T18:47:08.044Z,3.87
2019-05-26T18:49:35.113Z,4.83
2019-05-26T18:52:02.087Z,4.97
2019-05-26T18:54:29.093Z,5.43
2019-05-26T18:56:56.108Z,6.30
2019-05-26T18:59:23.241Z,9.00
2019-05-26T19:01:50.283Z,4.57
2019-05-26T19:04:17.406Z,4.50
2019-05-26T19:06:44.450Z,5.33
2019-05-26T19:09:11.559Z,3.80
2019-05-26T19:11:38.654Z,5.47
2019-05-26T19:14:05.762Z,6.10
2019-05-26T19:16:32.876Z,4.20
2019-05-26T19:18:59.999Z,4.37
2019-05-26T19:21:27.126Z,6.20
2019-05-26T19:23:54.210Z,3.63
2019-05-26T19:26:21.317Z,3.53
2019-05-26T19:28:48.362Z,3.27
2019-05-26T19:31:15.457Z,3.80
2019-05-26T19:33:42.594Z,7.50
2019-05-26T19:36:09.964Z,3.47
2019-05-26T19:38:37.003Z,3.53
2019-05-26T19:41:04.101Z,6.40
2019-05-26T19:43:31.183Z,10.23
2019-05-26T19:45:58.272Z,4.40
2019-05-26T19:48:35.886Z,8.87
2019-05-26T19:51:04.280Z,6.10
2019-05-26T19:53:31.371Z,4.93
2019-05-26T19:55:58.452Z,5.33
2019-05-26T19:58:28.535Z,5.13
2019-05-26T20:00:54.557Z,4.50
2019-05-26T20:03:21.681Z,12.30
2019-05-26T20:05:48.778Z,7.20
2019-05-26T20:08:15.830Z,9.47
2019-05-26T20:10:42.918Z,9.73
2019-05-26T20:13:09.991Z,4.70
2019-05-26T20:15:37.090Z,4.70
2019-05-26T20:18:04.388Z,6.07
2019-05-26T20:20:31.647Z,8.10
2019-05-26T20:22:58.736Z,11.00
2019-05-26T20:25:26.487Z,5.30
2019-05-26T20:27:53.569Z,5.67
2019-05-26T20:30:22.239Z,5.50
2019-05-26T20:32:55.725Z,12.13
2019-05-26T20:35:22.808Z,6.73
2019-05-26T20:37:49.921Z,6.33
2019-05-26T20:40:17.093Z,6.60
2019-05-26T20:42:44.214Z,8.63
2019-05-26T20:45:52.194Z,8.53
2019-05-26T20:48:19.261Z,6.00
2019-05-26T20:50:46.336Z,7.30
2019-05-26T20:53:13.442Z,8.57
2019-05-26T20:55:40.569Z,9.07
2019-05-26T20:58:07.675Z,7.10
2019-05-26T21:00:34.785Z,9.33
2019-05-26T21:03:01.869Z,8.77
2019-05-26T21:05:28.968Z,8.93
2019-05-26T21:07:56.082Z,8.47
2019-05-26T21:10:23.167Z,12.10
2019-05-26T21:12:50.266Z,8.57
2019-05-26T21:15:17.427Z,9.80
2019-05-26T21:17:44.502Z,7.70
2019-05-26T21:20:11.961Z,9.60
2019-05-26T21:22:39.113Z,27.77
2019-05-26T21:25:06.891Z,14.97
2019-05-26T21:27:33.988Z,20.23
2019-05-26T21:30:01.063Z,9.80
2019-05-26T21:32:31.234Z,14.00
2019-05-26T21:34:57.195Z,10.40
2019-05-26T21:37:24.317Z,8.00
2019-05-26T21:39:51.424Z,9.47
2019-05-26T21:42:18.529Z,10.43
2019-05-26T21:44:45.625Z,12.23
2019-05-26T21:47:12.730Z,9.50
2019-05-26T21:49:39.824Z,10.93
2019-05-26T21:52:06.965Z,9.60
2019-05-26T21:54:34.115Z,8.30
2019-05-26T21:57:01.205Z,10.63
2019-05-26T21:59:28.384Z,8.37
2019-05-26T22:01:55.414Z,8.20
2019-05-26T22:04:22.513Z,10.90
2019-05-26T22:06:49.659Z,10.30
2019-05-26T22:09:16.729Z,13.40
2019-05-26T22:11:43.826Z,9.50
2019-05-26T22:14:10.908Z,11.93
2019-05-26T22:16:37.987Z,10.20
2019-05-26T22:19:05.139Z,15.30
2019-05-26T22:21:32.248Z,9.70
2019-05-26T22:23:59.340Z,11.40
2019-05-26T22:26:26.453Z,11.60
2019-05-26T22:28:53.581Z,10.63
2019-05-26T22:31:20.657Z,15.10
2019-05-26T22:33:47.761Z,10.60
2019-05-26T22:36:14.871Z,10.97
2019-05-26T22:38:41.971Z,10.47
2019-05-26T22:41:09.069Z,9.70
2019-05-26T22:43:36.152Z,10.40
2019-05-26T22:46:03.241Z,16.07
2019-05-26T22:48:30.350Z,10.10
2019-05-26T22:50:57.452Z,9.37
2019-05-26T22:53:24.559Z,13.17
2019-05-26T22:55:51.647Z,11.47
2019-05-26T22:58:18.785Z,9.47
2019-05-26T23:00:45.885Z,11.00
2019-05-26T23:03:12.951Z,11.70
2019-05-26T23:05:40.081Z,12.27
2019-05-26T23:08:07.149Z,9.87
2019-05-26T23:10:34.249Z,10.03
2019-05-26T23:13:01.351Z,11.70
2019-05-26T23:15:28.432Z,9.53
2019-05-26T23:17:55.492Z,13.67
2019-05-26T23:20:22.625Z,9.80
2019-05-26T23:22:49.700Z,11.47
2019-05-26T23:25:17.656Z,10.83
2019-05-26T23:27:44.759Z,12.10
2019-05-26T23:30:11.856Z,10.00
2019-05-26T23:32:38.932Z,10.23
2019-05-26T23:35:06.027Z,11.50
2019-05-26T23:37:33.154Z,9.57
2019-05-26T23:40:00.215Z,13.50
2019-05-26T23:42:27.308Z,9.93
2019-05-26T23:44:54.397Z,12.03
2019-05-26T23:47:21.482Z,8.90
2019-05-26T23:49:48.591Z,10.10
2019-05-26T23:52:19.191Z,17.67
2019-05-26T23:54:44.674Z,10.67
2019-05-26T23:57:11.780Z,11.87
2019-05-26T23:59:38.845Z,10.37
